sensor_id;sensor_type;location;lat;lon;timestamp;P1;durP1;ratioP1;P2;durP2;ratioP2
16770;SDS011;8503;52.472;13.344;2023-04-15T00:00:45;17.35;;;11.07;;
16770;SDS011;8503;52.472;13.344;2023-04-15T00:02:15;16.70;;;11.65;;
16770;SDS011;8503;52.472;13.344;2023-04-15T00:03:41;17.15;;;12.18;;
16770;SDS011;8503;52.472;13.344;2023-04-15T00:05:05;20.48;;;11.90;;
16770;SDS011;8503;52.472;13.344;2023-04-15T00:06:33;17.77;;;11.40;;
16770;SDS011;8503;52.472;13.344;2023-04-15T00:07:58;17.17;;;12.38;;
16770;SDS011;8503;52.472;13.344;2023-04-15T00:09:21;16.95;;;11.93;;
16770;SDS011;8503;52.472;13.344;2023-04-15T00:10:45;18.67;;;12.40;;
16770;SDS011;8503;52.472;13.344;2023-04-15T00:12:09;20.27;;;12.18;;
16770;SDS011;8503;52.472;13.344;2023-04-15T00:13:33;19.65;;;12.23;;
16770;SDS011;8503;52.472;13.344;2023-04-15T00:14:55;20.48;;;13.10;;
16770;SDS011;8503;52.472;13.344;2023-04-15T00:16:19;17.25;;;12.25;;
16770;SDS011;8503;52.472;13.344;2023-04-15T00:17:41;17.13;;;11.45;;
16770;SDS011;8503;52.472;13.344;2023-04-15T00:19:06;19.45;;;12.45;;
16770;SDS011;8503;52.472;13.344;2023-04-15T00:20:32;20.70;;;12.63;;
16770;SDS011;8503;52.472;13.344;2023-04-15T00:21:56;18.52;;;12.90;;
16770;SDS011;8503;52.472;13.344;2023-04-15T00:23:19;21.63;;;13.13;;
16770;SDS011;8503;52.472;13.344;2023-04-15T00:24:42;19.13;;;12.90;;
16770;SDS011;8503;52.472;13.344;2023-04-15T00:26:05;18.55;;;12.45;;
16770;SDS011;8503;52.472;13.344;2023-04-15T00:27:28;23.65;;;12.95;;
16770;SDS011;8503;52.472;13.344;2023-04-15T00:28:52;19.52;;;13.15;;
16770;SDS011;8503;52.472;13.344;2023-04-15T00:30:14;20.73;;;13.93;;
16770;SDS011;8503;52.472;13.344;2023-04-15T00:31:38;21.48;;;13.55;;
16770;SDS011;8503;52.472;13.344;2023-04-15T00:33:02;20.65;;;13.30;;
16770;SDS011;8503;52.472;13.344;2023-04-15T00:34:29;21.13;;;14.18;;
16770;SDS011;8503;52.472;13.344;2023-04-15T00:35:52;22.30;;;13.52;;
16770;SDS011;8503;52.472;13.344;2023-04-15T00:37:15;20.88;;;13.00;;
16770;SDS011;8503;52.472;13.344;2023-04-15T00:38:38;19.33;;;13.00;;
16770;SDS011;8503;52.472;13.344;2023-04-15T00:40:02;23.05;;;14.65;;
16770;SDS011;8503;52.472;13.344;2023-04-15T00:41:28;21.35;;;14.15;;
16770;SDS011;8503;52.472;13.344;2023-04-15T00:42:55;22.70;;;14.27;;
16770;SDS011;8503;52.472;13.344;2023-04-15T00:44:18;22.23;;;14.48;;
16770;SDS011;8503;52.472;13.344;2023-04-15T00:45:42;19.33;;;12.43;;
16770;SDS011;8503;52.472;13.344;2023-04-15T00:47:07;20.75;;;13.63;;
16770;SDS011;8503;52.472;13.344;2023-04-15T00:48:31;20.73;;;13.27;;
16770;SDS011;8503;52.472;13.344;2023-04-15T00:49:56;22.88;;;13.88;;
16770;SDS011;8503;52.472;13.344;2023-04-15T00:51:18;21.90;;;14.95;;
16770;SDS011;8503;52.472;13.344;2023-04-15T00:52:42;22.25;;;14.52;;
16770;SDS011;8503;52.472;13.344;2023-04-15T00:54:05;24.33;;;15.07;;
16770;SDS011;8503;52.472;13.344;2023-04-15T00:55:28;23.63;;;14.77;;
16770;SDS011;8503;52.472;13.344;2023-04-15T00:56:51;23.40;;;15.25;;
16770;SDS011;8503;52.472;13.344;2023-04-15T00:58:15;23.17;;;14.93;;
16770;SDS011;8503;52.472;13.344;2023-04-15T00:59:37;21.45;;;14.73;;
16770;SDS011;8503;52.472;13.344;2023-04-15T01:01:01;23.17;;;14.13;;
16770;SDS011;8503;52.472;13.344;2023-04-15T01:02:24;24.27;;;15.02;;
16770;SDS011;8503;52.472;13.344;2023-04-15T01:03:48;21.88;;;14.65;;
16770;SDS011;8503;52.472;13.344;2023-04-15T01:05:13;26.02;;;14.55;;
16770;SDS011;8503;52.472;13.344;2023-04-15T01:06:38;22.63;;;13.70;;
16770;SDS011;8503;52.472;13.344;2023-04-15T01:08:02;23.98;;;14.82;;
16770;SDS011;8503;52.472;13.344;2023-04-15T01:09:25;23.60;;;14.60;;
16770;SDS011;8503;52.472;13.344;2023-04-15T01:10:49;24.75;;;13.85;;
16770;SDS011;8503;52.472;13.344;2023-04-15T01:12:11;22.95;;;13.68;;
16770;SDS011;8503;52.472;13.344;2023-04-15T01:13:37;21.80;;;15.02;;
16770;SDS011;8503;52.472;13.344;2023-04-15T01:15:01;25.55;;;15.40;;
16770;SDS011;8503;52.472;13.344;2023-04-15T01:16:24;25.13;;;15.90;;
16770;SDS011;8503;52.472;13.344;2023-04-15T01:17:49;24.05;;;15.50;;
16770;SDS011;8503;52.472;13.344;2023-04-15T01:19:13;24.65;;;14.18;;
16770;SDS011;8503;52.472;13.344;2023-04-15T01:20:40;28.83;;;15.38;;
16770;SDS011;8503;52.472;13.344;2023-04-15T01:22:02;21.45;;;14.13;;
16770;SDS011;8503;52.472;13.344;2023-04-15T01:23:26;26.75;;;16.00;;
16770;SDS011;8503;52.472;13.344;2023-04-15T01:24:51;27.20;;;14.25;;
16770;SDS011;8503;52.472;13.344;2023-04-15T01:26:20;26.20;;;16.75;;
16770;SDS011;8503;52.472;13.344;2023-04-15T01:27:44;25.33;;;15.82;;
16770;SDS011;8503;52.472;13.344;2023-04-15T01:29:07;24.33;;;14.60;;
16770;SDS011;8503;52.472;13.344;2023-04-15T01:30:32;30.23;;;16.13;;
16770;SDS011;8503;52.472;13.344;2023-04-15T01:31:55;23.77;;;15.02;;
16770;SDS011;8503;52.472;13.344;2023-04-15T01:33:19;26.83;;;16.38;;
16770;SDS011;8503;52.472;13.344;2023-04-15T01:34:41;27.55;;;15.52;;
16770;SDS011;8503;52.472;13.344;2023-04-15T01:36:05;29.38;;;15.10;;
16770;SDS011;8503;52.472;13.344;2023-04-15T01:37:28;27.13;;;16.85;;
16770;SDS011;8503;52.472;13.344;2023-04-15T01:38:52;23.38;;;15.90;;
16770;SDS011;8503;52.472;13.344;2023-04-15T01:40:16;25.45;;;15.65;;
16770;SDS011;8503;52.472;13.344;2023-04-15T01:41:43;24.02;;;15.02;;
16770;SDS011;8503;52.472;13.344;2023-04-15T01:43:05;27.33;;;16.58;;
16770;SDS011;8503;52.472;13.344;2023-04-15T01:44:29;29.17;;;16.80;;
16770;SDS011;8503;52.472;13.344;2023-04-15T01:45:52;25.42;;;16.30;;
16770;SDS011;8503;52.472;13.344;2023-04-15T01:47:17;24.55;;;15.48;;
16770;SDS011;8503;52.472;13.344;2023-04-15T01:48:41;27.77;;;16.40;;
16770;SDS011;8503;52.472;13.344;2023-04-15T01:50:03;28.92;;;16.95;;
16770;SDS011;8503;52.472;13.344;2023-04-15T01:51:28;27.90;;;16.02;;
16770;SDS011;8503;52.472;13.344;2023-04-15T01:52:52;23.55;;;15.35;;
16770;SDS011;8503;52.472;13.344;2023-04-15T01:54:15;27.85;;;16.33;;
16770;SDS011;8503;52.472;13.344;2023-04-15T01:55:39;28.58;;;16.20;;
16770;SDS011;8503;52.472;13.344;2023-04-15T01:57:02;23.45;;;14.60;;
16770;SDS011;8503;52.472;13.344;2023-04-15T01:58:26;29.85;;;16.75;;
16770;SDS011;8503;52.472;13.344;2023-04-15T01:59:49;26.88;;;15.63;;
16770;SDS011;8503;52.472;13.344;2023-04-15T02:01:12;25.77;;;15.50;;
16770;SDS011;8503;52.472;13.344;2023-04-15T02:02:37;24.90;;;16.67;;
16770;SDS011;8503;52.472;13.344;2023-04-15T02:04:00;25.98;;;15.98;;
16770;SDS011;8503;52.472;13.344;2023-04-15T02:05:23;27.70;;;16.73;;
16770;SDS011;8503;52.472;13.344;2023-04-15T02:06:46;27.33;;;16.83;;
16770;SDS011;8503;52.472;13.344;2023-04-15T02:08:09;29.80;;;16.67;;
16770;SDS011;8503;52.472;13.344;2023-04-15T02:09:33;28.33;;;16.88;;
16770;SDS011;8503;52.472;13.344;2023-04-15T02:10:56;28.30;;;17.48;;
16770;SDS011;8503;52.472;13.344;2023-04-15T02:12:20;31.45;;;17.63;;
16770;SDS011;8503;52.472;13.344;2023-04-15T02:13:43;28.48;;;17.40;;
16770;SDS011;8503;52.472;13.344;2023-04-15T02:15:07;33.05;;;16.63;;
16770;SDS011;8503;52.472;13.344;2023-04-15T02:16:30;26.75;;;16.30;;
16770;SDS011;8503;52.472;13.344;2023-04-15T02:17:54;31.13;;;16.75;;
16770;SDS011;8503;52.472;13.344;2023-04-15T02:19:17;29.27;;;16.90;;
16770;SDS011;8503;52.472;13.344;2023-04-15T02:20:40;30.35;;;16.90;;
16770;SDS011;8503;52.472;13.344;2023-04-15T02:22:04;28.52;;;16.85;;
16770;SDS011;8503;52.472;13.344;2023-04-15T02:23:27;27.38;;;15.98;;
16770;SDS011;8503;52.472;13.344;2023-04-15T02:24:51;25.13;;;16.05;;
16770;SDS011;8503;52.472;13.344;2023-04-15T02:26:13;28.38;;;16.83;;
16770;SDS011;8503;52.472;13.344;2023-04-15T02:27:38;28.83;;;16.40;;
16770;SDS011;8503;52.472;13.344;2023-04-15T02:29:02;28.25;;;16.88;;
16770;SDS011;8503;52.472;13.344;2023-04-15T02:30:25;27.52;;;16.45;;
16770;SDS011;8503;52.472;13.344;2023-04-15T02:31:48;26.38;;;15.77;;
16770;SDS011;8503;52.472;13.344;2023-04-15T02:33:11;26.33;;;15.55;;
16770;SDS011;8503;52.472;13.344;2023-04-15T02:34:35;27.65;;;15.38;;
16770;SDS011;8503;52.472;13.344;2023-04-15T02:35:59;31.08;;;16.33;;
16770;SDS011;8503;52.472;13.344;2023-04-15T02:37:22;25.65;;;16.08;;
16770;SDS011;8503;52.472;13.344;2023-04-15T02:38:47;29.38;;;16.80;;
16770;SDS011;8503;52.472;13.344;2023-04-15T02:40:11;29.00;;;18.35;;
16770;SDS011;8503;52.472;13.344;2023-04-15T02:41:35;28.48;;;16.45;;
16770;SDS011;8503;52.472;13.344;2023-04-15T02:42:59;29.70;;;18.20;;
16770;SDS011;8503;52.472;13.344;2023-04-15T02:44:23;28.15;;;15.88;;
16770;SDS011;8503;52.472;13.344;2023-04-15T02:45:45;25.85;;;16.10;;
16770;SDS011;8503;52.472;13.344;2023-04-15T02:47:09;31.30;;;17.33;;
16770;SDS011;8503;52.472;13.344;2023-04-15T02:48:34;29.27;;;16.00;;
16770;SDS011;8503;52.472;13.344;2023-04-15T02:49:57;28.45;;;16.58;;
16770;SDS011;8503;52.472;13.344;2023-04-15T02:51:21;30.05;;;16.10;;
16770;SDS011;8503;52.472;13.344;2023-04-15T02:52:46;30.45;;;17.10;;
16770;SDS011;8503;52.472;13.344;2023-04-15T02:54:09;28.27;;;16.92;;
16770;SDS011;8503;52.472;13.344;2023-04-15T02:55:33;28.65;;;16.30;;
16770;SDS011;8503;52.472;13.344;2023-04-15T02:56:57;28.80;;;16.33;;
16770;SDS011;8503;52.472;13.344;2023-04-15T02:58:21;26.90;;;16.17;;
16770;SDS011;8503;52.472;13.344;2023-04-15T02:59:45;30.52;;;15.57;;
16770;SDS011;8503;52.472;13.344;2023-04-15T03:01:08;29.88;;;16.65;;
16770;SDS011;8503;52.472;13.344;2023-04-15T03:02:32;27.40;;;15.82;;
16770;SDS011;8503;52.472;13.344;2023-04-15T03:03:56;32.03;;;17.73;;
16770;SDS011;8503;52.472;13.344;2023-04-15T03:05:19;29.88;;;17.13;;
16770;SDS011;8503;52.472;13.344;2023-04-15T03:06:44;29.85;;;15.88;;
16770;SDS011;8503;52.472;13.344;2023-04-15T03:08:08;26.65;;;16.33;;
16770;SDS011;8503;52.472;13.344;2023-04-15T03:09:31;28.92;;;15.95;;
16770;SDS011;8503;52.472;13.344;2023-04-15T03:10:57;29.52;;;16.80;;
16770;SDS011;8503;52.472;13.344;2023-04-15T03:12:21;32.42;;;17.00;;
16770;SDS011;8503;52.472;13.344;2023-04-15T03:13:45;23.17;;;15.13;;
16770;SDS011;8503;52.472;13.344;2023-04-15T03:15:09;26.90;;;17.02;;
16770;SDS011;8503;52.472;13.344;2023-04-15T03:16:33;29.02;;;15.10;;
16770;SDS011;8503;52.472;13.344;2023-04-15T03:17:57;24.90;;;14.75;;
16770;SDS011;8503;52.472;13.344;2023-04-15T03:19:20;26.77;;;14.70;;
16770;SDS011;8503;52.472;13.344;2023-04-15T03:20:44;26.88;;;16.00;;
16770;SDS011;8503;52.472;13.344;2023-04-15T03:22:08;25.40;;;16.05;;
16770;SDS011;8503;52.472;13.344;2023-04-15T03:23:31;27.50;;;15.05;;
16770;SDS011;8503;52.472;13.344;2023-04-15T03:24:55;28.70;;;16.63;;
16770;SDS011;8503;52.472;13.344;2023-04-15T03:26:25;24.23;;;15.55;;
16770;SDS011;8503;52.472;13.344;2023-04-15T03:27:49;26.30;;;15.27;;
16770;SDS011;8503;52.472;13.344;2023-04-15T03:29:14;23.85;;;15.88;;
16770;SDS011;8503;52.472;13.344;2023-04-15T03:30:36;28.60;;;16.13;;
16770;SDS011;8503;52.472;13.344;2023-04-15T03:32:00;28.13;;;17.33;;
16770;SDS011;8503;52.472;13.344;2023-04-15T03:33:22;29.48;;;17.55;;
16770;SDS011;8503;52.472;13.344;2023-04-15T03:34:46;26.73;;;15.25;;
16770;SDS011;8503;52.472;13.344;2023-04-15T03:36:09;28.20;;;15.88;;
16770;SDS011;8503;52.472;13.344;2023-04-15T03:37:33;26.92;;;15.60;;
16770;SDS011;8503;52.472;13.344;2023-04-15T03:38:57;26.33;;;15.98;;
16770;SDS011;8503;52.472;13.344;2023-04-15T03:40:19;26.70;;;14.65;;
16770;SDS011;8503;52.472;13.344;2023-04-15T03:41:43;25.92;;;15.10;;
16770;SDS011;8503;52.472;13.344;2023-04-15T03:43:05;26.65;;;15.38;;
16770;SDS011;8503;52.472;13.344;2023-04-15T03:44:30;27.88;;;16.27;;
16770;SDS011;8503;52.472;13.344;2023-04-15T03:45:53;25.88;;;15.35;;
16770;SDS011;8503;52.472;13.344;2023-04-15T03:47:16;31.17;;;17.05;;
16770;SDS011;8503;52.472;13.344;2023-04-15T03:48:38;25.80;;;15.55;;
16770;SDS011;8503;52.472;13.344;2023-04-15T03:50:02;25.50;;;15.10;;
16770;SDS011;8503;52.472;13.344;2023-04-15T03:51:25;26.92;;;14.88;;
16770;SDS011;8503;52.472;13.344;2023-04-15T03:52:48;27.20;;;16.15;;
16770;SDS011;8503;52.472;13.344;2023-04-15T03:54:12;24.00;;;14.75;;
16770;SDS011;8503;52.472;13.344;2023-04-15T03:55:37;28.50;;;14.95;;
16770;SDS011;8503;52.472;13.344;2023-04-15T03:57:01;24.40;;;15.30;;
16770;SDS011;8503;52.472;13.344;2023-04-15T03:58:24;29.83;;;16.83;;
16770;SDS011;8503;52.472;13.344;2023-04-15T03:59:49;25.83;;;16.02;;
16770;SDS011;8503;52.472;13.344;2023-04-15T04:01:13;25.13;;;14.48;;
16770;SDS011;8503;52.472;13.344;2023-04-15T04:02:36;30.58;;;16.58;;
16770;SDS011;8503;52.472;13.344;2023-04-15T04:03:59;24.05;;;14.63;;
16770;SDS011;8503;52.472;13.344;2023-04-15T04:05:23;28.92;;;15.05;;
16770;SDS011;8503;52.472;13.344;2023-04-15T04:06:46;23.73;;;14.80;;
16770;SDS011;8503;52.472;13.344;2023-04-15T04:08:09;27.20;;;14.98;;
16770;SDS011;8503;52.472;13.344;2023-04-15T04:09:34;25.52;;;15.02;;
16770;SDS011;8503;52.472;13.344;2023-04-15T04:10:59;23.80;;;14.63;;
16770;SDS011;8503;52.472;13.344;2023-04-15T04:12:24;26.20;;;14.73;;
16770;SDS011;8503;52.472;13.344;2023-04-15T04:13:46;27.15;;;15.15;;
16770;SDS011;8503;52.472;13.344;2023-04-15T04:15:11;26.27;;;15.60;;
16770;SDS011;8503;52.472;13.344;2023-04-15T04:16:34;25.75;;;15.38;;
16770;SDS011;8503;52.472;13.344;2023-04-15T04:17:57;26.27;;;15.25;;
16770;SDS011;8503;52.472;13.344;2023-04-15T04:19:20;23.20;;;15.13;;
16770;SDS011;8503;52.472;13.344;2023-04-15T04:20:43;24.80;;;14.13;;
16770;SDS011;8503;52.472;13.344;2023-04-15T04:22:06;27.40;;;14.45;;
16770;SDS011;8503;52.472;13.344;2023-04-15T04:23:29;25.08;;;14.43;;
16770;SDS011;8503;52.472;13.344;2023-04-15T04:24:52;27.13;;;14.70;;
16770;SDS011;8503;52.472;13.344;2023-04-15T04:26:15;25.25;;;14.80;;
16770;SDS011;8503;52.472;13.344;2023-04-15T04:27:38;27.25;;;14.13;;
16770;SDS011;8503;52.472;13.344;2023-04-15T04:29:02;27.27;;;14.23;;
16770;SDS011;8503;52.472;13.344;2023-04-15T04:30:26;24.20;;;14.45;;
16770;SDS011;8503;52.472;13.344;2023-04-15T04:31:50;25.30;;;13.93;;
16770;SDS011;8503;52.472;13.344;2023-04-15T04:33:14;22.27;;;13.85;;
16770;SDS011;8503;52.472;13.344;2023-04-15T04:34:36;26.92;;;14.35;;
16770;SDS011;8503;52.472;13.344;2023-04-15T04:36:00;23.25;;;13.55;;
16770;SDS011;8503;52.472;13.344;2023-04-15T04:37:22;25.55;;;14.55;;
16770;SDS011;8503;52.472;13.344;2023-04-15T04:38:46;20.73;;;13.00;;
16770;SDS011;8503;52.472;13.344;2023-04-15T04:40:10;21.23;;;13.45;;
16770;SDS011;8503;52.472;13.344;2023-04-15T04:41:33;21.50;;;13.65;;
16770;SDS011;8503;52.472;13.344;2023-04-15T04:42:56;25.63;;;15.07;;
16770;SDS011;8503;52.472;13.344;2023-04-15T04:44:20;22.52;;;13.20;;
16770;SDS011;8503;52.472;13.344;2023-04-15T04:45:44;25.40;;;14.10;;
16770;SDS011;8503;52.472;13.344;2023-04-15T04:47:07;22.40;;;13.90;;
16770;SDS011;8503;52.472;13.344;2023-04-15T04:48:30;20.98;;;13.80;;
16770;SDS011;8503;52.472;13.344;2023-04-15T04:49:53;23.33;;;14.52;;
16770;SDS011;8503;52.472;13.344;2023-04-15T04:51:17;25.58;;;14.40;;
16770;SDS011;8503;52.472;13.344;2023-04-15T04:52:39;26.33;;;12.43;;
16770;SDS011;8503;52.472;13.344;2023-04-15T04:54:02;21.15;;;13.68;;
16770;SDS011;8503;52.472;13.344;2023-04-15T04:55:26;23.88;;;13.55;;
16770;SDS011;8503;52.472;13.344;2023-04-15T04:56:50;22.33;;;14.25;;
16770;SDS011;8503;52.472;13.344;2023-04-15T04:58:13;20.38;;;13.45;;
16770;SDS011;8503;52.472;13.344;2023-04-15T04:59:37;19.65;;;12.75;;
16770;SDS011;8503;52.472;13.344;2023-04-15T05:01:00;21.50;;;13.73;;
16770;SDS011;8503;52.472;13.344;2023-04-15T05:02:28;21.17;;;12.50;;
16770;SDS011;8503;52.472;13.344;2023-04-15T05:03:52;18.88;;;12.48;;
16770;SDS011;8503;52.472;13.344;2023-04-15T05:05:16;18.05;;;12.48;;
16770;SDS011;8503;52.472;13.344;2023-04-15T05:06:39;18.88;;;10.23;;
16770;SDS011;8503;52.472;13.344;2023-04-15T05:08:03;24.08;;;11.05;;
16770;SDS011;8503;52.472;13.344;2023-04-15T05:09:27;18.20;;;11.75;;
16770;SDS011;8503;52.472;13.344;2023-04-15T05:10:52;21.85;;;13.15;;
16770;SDS011;8503;52.472;13.344;2023-04-15T05:12:15;19.58;;;12.77;;
16770;SDS011;8503;52.472;13.344;2023-04-15T05:13:40;18.38;;;11.07;;
16770;SDS011;8503;52.472;13.344;2023-04-15T05:15:04;21.17;;;12.25;;
16770;SDS011;8503;52.472;13.344;2023-04-15T05:16:30;20.67;;;11.55;;
16770;SDS011;8503;52.472;13.344;2023-04-15T05:17:53;21.20;;;12.95;;
16770;SDS011;8503;52.472;13.344;2023-04-15T05:19:17;26.45;;;11.75;;
16770;SDS011;8503;52.472;13.344;2023-04-15T05:20:40;17.35;;;10.60;;
16770;SDS011;8503;52.472;13.344;2023-04-15T05:22:04;18.25;;;11.75;;
16770;SDS011;8503;52.472;13.344;2023-04-15T05:23:27;21.08;;;12.23;;
16770;SDS011;8503;52.472;13.344;2023-04-15T05:24:51;19.30;;;12.85;;
16770;SDS011;8503;52.472;13.344;2023-04-15T05:26:13;18.70;;;11.55;;
16770;SDS011;8503;52.472;13.344;2023-04-15T05:27:37;18.75;;;12.00;;
16770;SDS011;8503;52.472;13.344;2023-04-15T05:29:01;17.23;;;10.35;;
16770;SDS011;8503;52.472;13.344;2023-04-15T05:30:24;17.73;;;11.25;;
16770;SDS011;8503;52.472;13.344;2023-04-15T05:31:49;17.83;;;10.88;;
16770;SDS011;8503;52.472;13.344;2023-04-15T05:33:12;14.98;;;9.55;;
16770;SDS011;8503;52.472;13.344;2023-04-15T05:34:36;16.33;;;10.27;;
16770;SDS011;8503;52.472;13.344;2023-04-15T05:36:00;18.27;;;10.77;;
16770;SDS011;8503;52.472;13.344;2023-04-15T05:37:22;15.70;;;9.93;;
16770;SDS011;8503;52.472;13.344;2023-04-15T05:38:46;17.23;;;11.00;;
16770;SDS011;8503;52.472;13.344;2023-04-15T05:40:10;20.02;;;10.40;;
16770;SDS011;8503;52.472;13.344;2023-04-15T05:41:34;18.88;;;11.05;;
16770;SDS011;8503;52.472;13.344;2023-04-15T05:42:58;14.70;;;10.02;;
16770;SDS011;8503;52.472;13.344;2023-04-15T05:44:21;19.05;;;11.10;;
16770;SDS011;8503;52.472;13.344;2023-04-15T05:45:45;13.88;;;9.60;;
16770;SDS011;8503;52.472;13.344;2023-04-15T05:47:09;15.38;;;9.88;;
16770;SDS011;8503;52.472;13.344;2023-04-15T05:48:32;13.20;;;8.48;;
16770;SDS011;8503;52.472;13.344;2023-04-15T05:49:55;19.08;;;9.80;;
16770;SDS011;8503;52.472;13.344;2023-04-15T05:51:20;14.50;;;9.35;;
16770;SDS011;8503;52.472;13.344;2023-04-15T05:52:43;15.50;;;10.30;;
16770;SDS011;8503;52.472;13.344;2023-04-15T05:54:07;17.65;;;9.88;;
16770;SDS011;8503;52.472;13.344;2023-04-15T05:55:30;15.48;;;9.57;;
16770;SDS011;8503;52.472;13.344;2023-04-15T05:56:53;14.88;;;9.27;;
16770;SDS011;8503;52.472;13.344;2023-04-15T05:58:17;15.30;;;9.70;;
16770;SDS011;8503;52.472;13.344;2023-04-15T05:59:41;17.15;;;10.18;;
16770;SDS011;8503;52.472;13.344;2023-04-15T06:01:05;14.90;;;9.90;;
16770;SDS011;8503;52.472;13.344;2023-04-15T06:02:29;17.60;;;10.25;;
16770;SDS011;8503;52.472;13.344;2023-04-15T06:03:53;14.93;;;9.40;;
16770;SDS011;8503;52.472;13.344;2023-04-15T06:05:17;15.40;;;8.43;;
16770;SDS011;8503;52.472;13.344;2023-04-15T06:06:40;15.30;;;9.90;;
16770;SDS011;8503;52.472;13.344;2023-04-15T06:08:03;19.33;;;9.23;;
16770;SDS011;8503;52.472;13.344;2023-04-15T06:09:28;13.18;;;8.75;;
16770;SDS011;8503;52.472;13.344;2023-04-15T06:10:51;12.40;;;8.73;;
16770;SDS011;8503;52.472;13.344;2023-04-15T06:12:14;17.23;;;8.57;;
16770;SDS011;8503;52.472;13.344;2023-04-15T06:13:38;12.63;;;7.95;;
16770;SDS011;8503;52.472;13.344;2023-04-15T06:15:08;22.58;;;8.38;;
16770;SDS011;8503;52.472;13.344;2023-04-15T06:16:32;11.90;;;8.30;;
16770;SDS011;8503;52.472;13.344;2023-04-15T06:17:58;13.73;;;8.73;;
16770;SDS011;8503;52.472;13.344;2023-04-15T06:19:21;16.67;;;8.95;;
16770;SDS011;8503;52.472;13.344;2023-04-15T06:20:44;14.60;;;8.85;;
16770;SDS011;8503;52.472;13.344;2023-04-15T06:22:08;12.70;;;8.45;;
16770;SDS011;8503;52.472;13.344;2023-04-15T06:23:33;18.13;;;8.20;;
16770;SDS011;8503;52.472;13.344;2023-04-15T06:24:55;10.90;;;6.90;;
16770;SDS011;8503;52.472;13.344;2023-04-15T06:26:19;11.27;;;7.28;;
16770;SDS011;8503;52.472;13.344;2023-04-15T06:27:42;8.15;;;5.47;;
16770;SDS011;8503;52.472;13.344;2023-04-15T06:29:05;12.43;;;7.97;;
16770;SDS011;8503;52.472;13.344;2023-04-15T06:30:28;15.48;;;8.65;;
16770;SDS011;8503;52.472;13.344;2023-04-15T06:31:52;10.63;;;7.18;;
16770;SDS011;8503;52.472;13.344;2023-04-15T06:33:18;12.43;;;8.68;;
16770;SDS011;8503;52.472;13.344;2023-04-15T06:34:41;16.70;;;7.95;;
16770;SDS011;8503;52.472;13.344;2023-04-15T06:36:04;10.55;;;7.25;;
16770;SDS011;8503;52.472;13.344;2023-04-15T06:37:27;15.43;;;8.73;;
16770;SDS011;8503;52.472;13.344;2023-04-15T06:38:50;11.73;;;7.90;;
16770;SDS011;8503;52.472;13.344;2023-04-15T06:40:20;15.40;;;8.50;;
16770;SDS011;8503;52.472;13.344;2023-04-15T06:41:43;12.02;;;7.28;;
16770;SDS011;8503;52.472;13.344;2023-04-15T06:43:07;14.30;;;8.00;;
16770;SDS011;8503;52.472;13.344;2023-04-15T06:44:30;17.95;;;8.07;;
16770;SDS011;8503;52.472;13.344;2023-04-15T06:45:57;12.35;;;7.45;;
16770;SDS011;8503;52.472;13.344;2023-04-15T06:47:21;10.93;;;6.78;;
16770;SDS011;8503;52.472;13.344;2023-04-15T06:48:49;12.50;;;7.55;;
16770;SDS011;8503;52.472;13.344;2023-04-15T06:50:12;11.95;;;7.35;;
16770;SDS011;8503;52.472;13.344;2023-04-15T06:51:36;8.90;;;6.10;;
16770;SDS011;8503;52.472;13.344;2023-04-15T06:52:58;12.52;;;7.82;;
16770;SDS011;8503;52.472;13.344;2023-04-15T06:54:22;10.43;;;7.20;;
16770;SDS011;8503;52.472;13.344;2023-04-15T06:55:46;13.88;;;7.90;;
16770;SDS011;8503;52.472;13.344;2023-04-15T06:57:09;11.90;;;8.00;;
16770;SDS011;8503;52.472;13.344;2023-04-15T06:58:33;12.50;;;7.65;;
16770;SDS011;8503;52.472;13.344;2023-04-15T06:59:56;12.35;;;7.30;;
16770;SDS011;8503;52.472;13.344;2023-04-15T07:01:20;11.50;;;7.10;;
16770;SDS011;8503;52.472;13.344;2023-04-15T07:02:43;11.40;;;7.53;;
16770;SDS011;8503;52.472;13.344;2023-04-15T07:04:08;10.13;;;6.93;;
16770;SDS011;8503;52.472;13.344;2023-04-15T07:05:32;8.90;;;5.82;;
16770;SDS011;8503;52.472;13.344;2023-04-15T07:06:57;8.55;;;7.28;;
16770;SDS011;8503;52.472;13.344;2023-04-15T07:08:21;9.35;;;6.32;;
16770;SDS011;8503;52.472;13.344;2023-04-15T07:09:45;10.35;;;7.22;;
16770;SDS011;8503;52.472;13.344;2023-04-15T07:11:09;6.93;;;4.53;;
16770;SDS011;8503;52.472;13.344;2023-04-15T07:12:32;14.38;;;8.45;;
16770;SDS011;8503;52.472;13.344;2023-04-15T07:13:56;9.18;;;6.35;;
16770;SDS011;8503;52.472;13.344;2023-04-15T07:15:20;9.88;;;6.65;;
16770;SDS011;8503;52.472;13.344;2023-04-15T07:16:45;10.60;;;7.38;;
16770;SDS011;8503;52.472;13.344;2023-04-15T07:18:10;10.82;;;6.53;;
16770;SDS011;8503;52.472;13.344;2023-04-15T07:19:44;13.60;;;6.80;;
16770;SDS011;8503;52.472;13.344;2023-04-15T07:21:07;11.02;;;7.68;;
16770;SDS011;8503;52.472;13.344;2023-04-15T07:22:45;7.25;;;5.10;;
16770;SDS011;8503;52.472;13.344;2023-04-15T07:24:08;11.52;;;7.15;;
16770;SDS011;8503;52.472;13.344;2023-04-15T07:25:32;9.63;;;7.38;;
16770;SDS011;8503;52.472;13.344;2023-04-15T07:26:55;10.18;;;7.07;;
16770;SDS011;8503;52.472;13.344;2023-04-15T07:28:21;12.90;;;7.72;;
16770;SDS011;8503;52.472;13.344;2023-04-15T07:29:45;10.30;;;7.15;;
16770;SDS011;8503;52.472;13.344;2023-04-15T07:31:08;9.60;;;6.43;;
16770;SDS011;8503;52.472;13.344;2023-04-15T07:32:31;10.63;;;7.25;;
16770;SDS011;8503;52.472;13.344;2023-04-15T07:33:55;10.30;;;5.93;;
16770;SDS011;8503;52.472;13.344;2023-04-15T07:35:20;9.73;;;5.95;;
16770;SDS011;8503;52.472;13.344;2023-04-15T07:36:43;5.18;;;4.22;;
16770;SDS011;8503;52.472;13.344;2023-04-15T07:38:10;4.88;;;3.22;;
16770;SDS011;8503;52.472;13.344;2023-04-15T07:39:34;7.57;;;5.75;;
16770;SDS011;8503;52.472;13.344;2023-04-15T07:40:58;8.98;;;5.85;;
16770;SDS011;8503;52.472;13.344;2023-04-15T07:42:24;7.07;;;5.22;;
16770;SDS011;8503;52.472;13.344;2023-04-15T07:43:47;10.65;;;6.32;;
16770;SDS011;8503;52.472;13.344;2023-04-15T07:45:11;10.18;;;6.95;;
16770;SDS011;8503;52.472;13.344;2023-04-15T07:46:34;9.45;;;6.47;;
16770;SDS011;8503;52.472;13.344;2023-04-15T07:47:58;9.23;;;6.65;;
16770;SDS011;8503;52.472;13.344;2023-04-15T07:49:22;5.95;;;3.88;;
16770;SDS011;8503;52.472;13.344;2023-04-15T07:50:49;7.80;;;4.93;;
16770;SDS011;8503;52.472;13.344;2023-04-15T07:52:12;7.43;;;5.53;;
16770;SDS011;8503;52.472;13.344;2023-04-15T07:53:36;9.55;;;5.55;;
16770;SDS011;8503;52.472;13.344;2023-04-15T07:55:00;6.30;;;4.55;;
16770;SDS011;8503;52.472;13.344;2023-04-15T07:56:23;4.85;;;2.72;;
16770;SDS011;8503;52.472;13.344;2023-04-15T07:57:48;8.15;;;5.45;;
16770;SDS011;8503;52.472;13.344;2023-04-15T07:59:11;10.70;;;6.57;;
16770;SDS011;8503;52.472;13.344;2023-04-15T08:00:35;11.45;;;6.93;;
16770;SDS011;8503;52.472;13.344;2023-04-15T08:01:59;12.48;;;7.57;;
16770;SDS011;8503;52.472;13.344;2023-04-15T08:03:23;10.73;;;4.20;;
16770;SDS011;8503;52.472;13.344;2023-04-15T08:04:47;9.25;;;6.50;;
16770;SDS011;8503;52.472;13.344;2023-04-15T08:06:13;9.65;;;5.95;;
16770;SDS011;8503;52.472;13.344;2023-04-15T08:07:36;7.70;;;5.15;;
16770;SDS011;8503;52.472;13.344;2023-04-15T08:09:00;12.13;;;7.45;;
16770;SDS011;8503;52.472;13.344;2023-04-15T08:10:22;7.78;;;5.85;;
16770;SDS011;8503;52.472;13.344;2023-04-15T08:11:47;10.93;;;6.35;;
16770;SDS011;8503;52.472;13.344;2023-04-15T08:13:11;8.98;;;7.18;;